Kars, Turkey
Current Conditions -  °F | °C
As of 3:50 AM on Monday 22 Dec 2014 (Local Time) from LTCF Reporting Station
Clear Clear  
Wind Chill: 18°   Ceiling: Unl
Heat Index: 18°   Visibility: 6mi
Dew Point: 16°   Wind: 0mph
Humidity: 93%   Direction: NA
Pressure: 30"   Gusts: NA
Location:  40.59°N, 43.07°E
Report Text: LTCF 220050Z 00000KT CAVOK M08/M09 Q1016
Loading
Personal Weather Stations






























Interactive Weather Map New forecast layout! Learn more

10-Day Weather Forecast

Advertisements
Track Severe Weather on mobile